Time;durP1;ratioP1;P1;durP2;ratioP2;P2;SDS_P1;SDS_P2;PMS_P1;PMS_P2;Temp;Humidity;BMP_temperature;BMP_pressure;BME280_temperature;BME280_humidity;BME280_pressure;Samples;Min_cycle;Max_cycle;Signal;HPM_P1;HPM_P2
2022/04/25 00:01:44;;;;;;;20.15;8.70;;;;;;;11.11;45.05;100077.88;5016899;28;20049;-68
2022/04/25 00:04:11;;;;;;;18.50;9.10;;;;;;;11.27;44.73;100083.09;5015770;28;20053;-68
2022/04/25 00:06:38;;;;;;;19.38;8.80;;;;;;;11.01;45.33;100082.66;5016809;28;20104;-68
2022/04/25 00:09:04;;;;;;;18.83;10.02;;;;;;;11.38;44.46;100084.56;5017236;28;20089;-68
2022/04/25 00:11:31;;;;;;;26.42;9.07;;;;;;;11.18;44.98;100090.41;5016906;28;20073;-68
2022/04/25 00:13:58;;;;;;;19.50;9.00;;;;;;;11.42;44.04;100097.44;5016894;28;20124;-67
2022/04/25 00:16:24;;;;;;;18.20;8.35;;;;;;;11.10;44.69;100097.69;5016591;28;20134;-67
2022/04/25 00:18:51;;;;;;;21.80;10.02;;;;;;;11.20;44.79;100092.91;5016070;28;20037;-67
2022/04/25 00:21:17;;;;;;;17.45;9.25;;;;;;;11.18;44.56;100090.41;5017421;28;20057;-67
2022/04/25 00:23:43;;;;;;;20.17;9.73;;;;;;;11.17;44.73;100094.13;5013293;28;20069;-67
2022/04/25 00:26:10;;;;;;;21.88;9.50;;;;;;;11.26;44.54;100096.72;5013773;28;20500;-67
2022/04/25 00:28:36;;;;;;;20.48;10.00;;;;;;;10.94;45.19;100107.53;5013445;28;20061;-67
2022/04/25 00:31:03;;;;;;;24.15;9.73;;;;;;;11.08;44.74;100102.41;5014263;28;20133;-67
2022/04/25 00:33:29;;;;;;;23.42;10.25;;;;;;;10.70;45.38;100099.63;5013859;28;20141;-67
2022/04/25 00:35:56;;;;;;;21.90;10.60;;;;;;;11.01;44.68;100104.13;5018770;28;20141;-67
2022/04/25 00:38:22;;;;;;;24.95;10.73;;;;;;;10.95;45.04;100106.50;5012724;28;20541;-67
2022/04/25 00:40:49;;;;;;;22.52;10.95;;;;;;;10.76;45.38;100112.34;5019618;28;20481;-67
2022/04/25 00:43:15;;;;;;;20.80;10.20;;;;;;;10.31;46.63;100100.44;5012887;28;20133;-67
2022/04/25 00:45:42;;;;;;;18.08;9.85;;;;;;;10.39;46.49;100105.75;5013973;28;20522;-67
2022/04/25 00:48:08;;;;;;;20.40;10.10;;;;;;;10.76;45.60;100104.28;5007538;28;20549;-67
2022/04/25 00:50:38;;;;;;;26.50;11.38;;;;;;;11.00;45.08;100103.31;5012218;28;20229;-67
2022/04/25 00:53:06;;;;;;;27.98;10.85;;;;;;;10.96;45.14;100110.88;5013559;28;20975;-67
2022/04/25 00:55:36;;;;;;;18.65;10.55;;;;;;;10.53;45.97;100108.75;5014118;28;20073;-67
2022/04/25 00:58:03;;;;;;;22.95;10.40;;;;;;;10.87;45.37;100114.63;5013816;28;20069;-67
2022/04/25 01:00:29;;;;;;;21.08;10.38;;;;;;;11.02;45.30;100112.00;5013264;28;20465;-67
2022/04/25 01:02:56;;;;;;;23.30;10.75;;;;;;;10.60;45.83;100109.72;5013483;28;20169;-67
2022/04/25 01:09:10;;;;;;;19.92;11.65;;;;;;;10.27;46.81;100113.38;5013107;28;20048;-67
2022/04/25 01:11:36;;;;;;;22.13;10.75;;;;;;;10.48;45.92;100115.47;5013113;28;20133;-67
2022/04/25 01:14:17;;;;;;;26.75;12.27;;;;;;;10.45;46.42;100113.13;5012525;28;20124;-68
2022/04/25 01:16:45;;;;;;;21.95;12.25;;;;;;;9.97;47.57;100104.22;5012916;28;20073;-67
2022/04/25 01:19:12;;;;;;;24.33;12.60;;;;;;;10.73;45.64;100113.50;5012368;28;20056;-68
2022/04/25 01:21:42;;;;;;;26.40;11.82;;;;;;;10.32;46.51;100112.00;5013673;28;20144;-67
2022/04/25 01:29:41;;;;;;;25.23;12.20;;;;;;;10.56;45.91;100108.41;5012392;28;20080;-68
2022/04/25 01:32:08;;;;;;;27.92;13.27;;;;;;;10.45;46.23;100110.44;5012415;28;20128;-68
2022/04/25 01:34:38;;;;;;;29.05;13.70;;;;;;;10.54;45.93;100105.06;5007929;28;20056;-67
2022/04/25 01:37:06;;;;;;;25.17;13.57;;;;;;;10.67;45.50;100108.84;5013253;28;20096;-67
2022/04/25 01:39:34;;;;;;;26.27;13.00;;;;;;;10.41;46.19;100109.13;5012084;28;20465;-67
2022/04/25 01:42:01;;;;;;;23.08;12.95;;;;;;;10.85;45.04;100108.56;5011878;28;20133;-66
2022/04/25 01:44:27;;;;;;;28.25;12.90;;;;;;;10.30;46.36;100106.81;5008742;28;20054;-67
2022/04/25 01:46:54;;;;;;;27.45;13.93;;;;;;;10.23;46.82;100111.19;5012522;28;20045;-66
2022/04/25 01:49:21;;;;;;;24.75;13.63;;;;;;;10.36;46.54;100114.16;5012833;28;20136;-66
2022/04/25 01:51:47;;;;;;;27.58;13.88;;;;;;;10.25;46.49;100112.69;5010124;28;20046;-67
2022/04/25 01:54:17;;;;;;;29.00;13.40;;;;;;;10.91;44.89;100113.25;5011779;28;20056;-67
2022/04/25 01:56:43;;;;;;;24.48;14.05;;;;;;;10.25;46.38;100111.84;5011728;28;20045;-67
2022/04/25 01:59:09;;;;;;;24.52;14.50;;;;;;;10.33;46.10;100117.19;5011251;28;20534;-67
2022/04/25 02:01:36;;;;;;;26.48;13.35;;;;;;;9.95;47.16;100119.63;5011493;28;20050;-67
2022/04/25 02:04:03;;;;;;;28.45;14.85;;;;;;;10.48;45.81;100110.09;5005374;28;20077;-68
2022/04/25 02:06:29;;;;;;;31.17;15.13;;;;;;;10.53;45.80;100112.28;5009637;28;20046;-67
2022/04/25 02:08:56;;;;;;;28.45;14.27;;;;;;;10.60;45.50;100115.09;5011438;28;20553;-67
2022/04/25 02:11:24;;;;;;;28.67;14.85;;;;;;;10.26;46.19;100110.84;5012173;28;20056;-66
2022/04/25 02:13:54;;;;;;;23.98;14.10;;;;;;;10.41;45.81;100111.81;5011825;28;20050;-67
2022/04/25 02:16:21;;;;;;;26.13;13.73;;;;;;;10.92;44.81;100114.91;5011202;28;20133;-68
2022/04/25 02:18:48;;;;;;;29.52;14.52;;;;;;;10.21;45.97;100111.38;5009133;28;20054;-67
2022/04/25 02:21:15;;;;;;;25.25;13.90;;;;;;;9.89;46.88;100120.34;5011790;28;20046;-67
2022/04/25 02:23:42;;;;;;;27.27;14.55;;;;;;;9.70;47.61;100120.69;5010816;28;20092;-67
2022/04/25 02:26:09;;;;;;;23.92;14.82;;;;;;;10.32;46.03;100122.72;5011080;28;20133;-67
2022/04/25 02:28:37;;;;;;;26.42;15.20;;;;;;;10.64;45.40;100119.09;5010418;28;20084;-67
2022/04/25 02:31:05;;;;;;;28.40;13.93;;;;;;;10.09;46.28;100130.66;5011201;28;20129;-67
2022/04/25 02:33:32;;;;;;;27.33;14.85;;;;;;;9.90;47.10;100124.69;5011432;28;20041;-67
2022/04/25 02:36:00;;;;;;;27.80;15.93;;;;;;;9.97;46.59;100131.03;5011896;28;20050;-67
2022/04/25 02:38:26;;;;;;;28.08;15.60;;;;;;;9.91;47.21;100129.03;5015247;28;20128;-67
2022/04/25 02:41:26;;;;;;;26.70;14.82;;;;;;;9.77;47.50;100138.59;5004150;28;20124;-67
2022/04/25 02:43:45;;;;;;;29.83;14.43;;;;;;;9.94;46.92;100130.53;5009918;28;20069;-67
2022/04/25 02:46:15;;;;;;;30.33;15.60;;;;;;;10.15;46.31;100130.81;5010649;28;20046;-67
2022/04/25 02:48:43;;;;;;;32.20;16.58;;;;;;;9.62;47.42;100134.94;5010560;28;20137;-67
2022/04/25 02:51:11;;;;;;;32.70;15.98;;;;;;;10.37;45.97;100131.91;5010792;28;20125;-67
2022/04/25 02:53:38;;;;;;;33.75;15.70;;;;;;;9.92;47.03;100136.06;5014086;28;20060;-67
2022/04/25 02:56:06;;;;;;;30.73;16.17;;;;;;;9.58;47.47;100141.63;5013560;28;20137;-67
2022/04/25 02:58:34;;;;;;;31.83;16.42;;;;;;;10.19;46.21;100134.81;5011299;28;20124;-67
2022/04/25 03:01:04;;;;;;;33.20;16.48;;;;;;;9.93;46.79;100143.09;5011680;28;20482;-67
2022/04/25 03:03:35;;;;;;;27.15;15.43;;;;;;;10.13;46.41;100137.34;5007470;28;20439;-68
2022/04/25 03:06:04;;;;;;;31.05;16.70;;;;;;;10.10;46.59;100140.38;5010325;28;20050;-67
2022/04/25 03:08:31;;;;;;;30.55;16.35;;;;;;;10.12;46.28;100141.88;5010026;28;20475;-67
2022/04/25 03:10:57;;;;;;;33.28;16.25;;;;;;;10.38;45.74;100147.00;5011535;28;20557;-67
2022/04/25 03:13:24;;;;;;;30.58;16.00;;;;;;;10.48;45.26;100142.28;5010708;28;20463;-67
2022/04/25 03:15:52;;;;;;;31.63;15.95;;;;;;;10.08;46.27;100151.28;5009769;28;20457;-67
2022/04/25 03:18:19;;;;;;;29.58;16.25;;;;;;;10.00;46.52;100154.81;5010572;28;20100;-67
2022/04/25 03:20:48;;;;;;;35.92;16.60;;;;;;;9.99;46.56;100153.16;5010314;28;20060;-67
2022/04/25 03:23:19;;;;;;;30.67;16.63;;;;;;;10.22;46.12;100160.47;5010132;28;20049;-67
2022/04/25 03:25:46;;;;;;;29.15;16.40;;;;;;;9.72;47.00;100166.91;5010880;28;20050;-67
2022/04/25 03:28:13;;;;;;;32.63;16.65;;;;;;;9.59;47.49;100166.56;5011374;28;20097;-67
2022/04/25 03:30:41;;;;;;;34.58;15.50;;;;;;;10.20;45.88;100166.00;5010707;28;20137;-67
2022/04/25 03:33:11;;;;;;;31.55;16.95;;;;;;;9.62;47.29;100167.06;5010672;28;20046;-67
2022/04/25 03:35:41;;;;;;;30.02;16.13;;;;;;;9.93;46.71;100166.38;5011163;28;20132;-67
2022/04/25 03:38:08;;;;;;;36.67;17.58;;;;;;;9.61;47.61;100175.25;5010900;28;20124;-67
2022/04/25 03:40:35;;;;;;;28.77;16.55;;;;;;;9.75;46.91;100166.53;5010063;28;20457;-67
2022/04/25 03:43:06;;;;;;;32.10;17.42;;;;;;;9.65;47.12;100176.63;5010288;28;20073;-67
2022/04/25 03:45:34;;;;;;;27.63;16.92;;;;;;;9.24;48.06;100184.63;5009214;28;20050;-67
2022/04/25 03:48:01;;;;;;;30.77;17.73;;;;;;;9.70;47.24;100183.13;5011356;28;20128;-67
2022/04/25 03:50:28;;;;;;;29.95;18.25;;;;;;;9.75;46.94;100185.28;5010395;28;20042;-67
2022/04/25 03:52:54;;;;;;;30.70;17.60;;;;;;;10.05;46.09;100189.13;5010021;28;20046;-67
2022/04/25 03:58:06;;;;;;;34.55;17.40;;;;;;;9.84;46.79;100184.28;5011063;28;20056;-67
2022/04/25 04:00:34;;;;;;;33.45;16.42;;;;;;;9.98;46.03;100194.31;5013515;28;20081;-67
2022/04/25 04:03:00;;;;;;;35.05;16.95;;;;;;;9.76;46.68;100198.53;5015082;28;20477;-67
2022/04/25 04:05:28;;;;;;;27.50;16.88;;;;;;;9.94;46.60;100195.69;5014707;28;20041;-67
2022/04/25 04:07:54;;;;;;;34.90;17.55;;;;;;;9.88;46.47;100201.72;5013930;28;20058;-67
2022/04/25 04:10:21;;;;;;;30.85;16.98;;;;;;;9.64;46.86;100201.72;5013479;28;20046;-67
2022/04/25 04:12:48;;;;;;;35.90;16.75;;;;;;;9.35;47.89;100200.34;5013109;28;20153;-67
2022/04/25 04:15:16;;;;;;;32.38;17.17;;;;;;;9.14;48.48;100199.94;5014340;28;20041;-67
2022/04/25 04:17:43;;;;;;;30.13;15.63;;;;;;;9.57;47.40;100201.53;5012691;28;20066;-67
2022/04/25 04:20:12;;;;;;;28.67;16.50;;;;;;;9.63;47.05;100208.06;5013326;28;20134;-67
2022/04/25 04:22:40;;;;;;;31.48;16.85;;;;;;;9.63;46.99;100210.75;5013578;28;20141;-67
2022/04/25 04:25:10;;;;;;;31.88;16.67;;;;;;;9.68;46.78;100219.13;5013582;28;20092;-67
2022/04/25 04:27:36;;;;;;;30.92;16.23;;;;;;;9.99;46.19;100221.97;5012517;28;20065;-67
2022/04/25 04:30:06;;;;;;;34.50;16.98;;;;;;;9.81;46.47;100222.13;5012508;28;20073;-67
2022/04/25 04:32:33;;;;;;;29.38;17.10;;;;;;;9.58;47.10;100224.66;5013715;28;20121;-67
2022/04/25 04:35:01;;;;;;;31.65;15.73;;;;;;;9.42;47.25;100236.16;5013436;28;20439;-67
2022/04/25 04:37:33;;;;;;;38.65;17.58;;;;;;;9.37;47.31;100227.81;5013814;28;20073;-67
2022/04/25 04:42:44;;;;;;;40.35;16.50;;;;;;;9.64;46.97;100237.34;5012861;28;20325;-67
2022/04/25 04:45:11;;;;;;;32.72;16.27;;;;;;;9.35;47.62;100251.22;5013141;28;20463;-67
2022/04/25 04:47:39;;;;;;;38.33;17.02;;;;;;;9.17;47.70;100248.63;5011398;28;20077;-67
2022/04/25 04:50:10;;;;;;;32.63;17.40;;;;;;;9.76;46.59;100253.97;5012089;28;20132;-67
2022/04/25 04:52:36;;;;;;;31.83;16.83;;;;;;;9.05;48.25;100256.09;5012600;28;20046;-67
2022/04/25 04:55:03;;;;;;;30.80;16.25;;;;;;;9.45;47.42;100256.44;5011695;28;20160;-67
2022/04/25 04:57:30;;;;;;;34.88;17.65;;;;;;;10.09;45.83;100259.31;5013171;28;20117;-67
2022/04/25 04:59:56;;;;;;;33.88;16.70;;;;;;;10.09;46.04;100259.31;5012905;28;20049;-67
2022/04/25 05:02:22;;;;;;;29.67;16.65;;;;;;;10.03;45.61;100264.34;5012479;28;20143;-67
2022/04/25 05:04:50;;;;;;;33.63;17.60;;;;;;;9.67;46.60;100261.13;5004872;28;20053;-67
2022/04/25 05:07:16;;;;;;;31.15;16.10;;;;;;;9.88;46.35;100263.31;5024392;28;20046;-67
2022/04/25 05:09:43;;;;;;;30.30;16.77;;;;;;;10.00;46.09;100266.53;5011580;28;20134;-67
2022/04/25 05:12:10;;;;;;;34.17;18.50;;;;;;;9.85;46.21;100269.00;5012111;28;20057;-66
2022/04/25 05:14:36;;;;;;;32.88;17.10;;;;;;;9.63;46.40;100267.84;5012312;28;20126;-67
2022/04/25 05:17:03;;;;;;;33.42;18.23;;;;;;;9.75;46.21;100269.19;5013375;28;20048;-67
2022/04/25 05:19:29;;;;;;;38.65;18.77;;;;;;;9.84;46.19;100278.06;5013073;28;20050;-67
2022/04/25 05:21:56;;;;;;;31.13;16.73;;;;;;;9.64;46.71;100272.19;5013033;28;20054;-67
2022/04/25 05:24:23;;;;;;;34.17;17.70;;;;;;;10.04;45.63;100278.59;5011625;28;20450;-67
2022/04/25 05:26:49;;;;;;;28.23;16.42;;;;;;;10.12;45.14;100280.41;5013387;28;20509;-68
2022/04/25 05:29:16;;;;;;;28.23;16.50;;;;;;;10.09;45.47;100280.75;5013086;28;20469;-68
2022/04/25 05:31:43;;;;;;;32.45;17.15;;;;;;;9.93;45.64;100282.44;5013081;28;20125;-68
2022/04/25 05:34:09;;;;;;;28.83;15.15;;;;;;;9.86;45.94;100289.47;5014987;28;20554;-68
2022/04/25 05:36:36;;;;;;;33.88;16.02;;;;;;;10.22;45.34;100286.44;5011777;28;20042;-68
2022/04/25 05:39:03;;;;;;;27.33;16.00;;;;;;;9.80;46.17;100295.47;5013078;28;20132;-68
2022/04/25 05:41:29;;;;;;;31.55;15.25;;;;;;;10.18;45.93;100293.16;5012477;28;20073;-68
2022/04/25 05:43:55;;;;;;;25.77;14.50;;;;;;;9.76;46.18;100296.81;5011780;28;20042;-68
2022/04/25 05:46:22;;;;;;;26.45;15.35;;;;;;;9.17;47.36;100302.16;5011456;28;20054;-68
2022/04/25 05:54:20;;;;;;;29.48;13.95;;;;;;;10.23;45.29;100312.25;5007324;28;20050;-67
2022/04/25 05:56:47;;;;;;;27.05;13.40;;;;;;;10.01;45.86;100311.06;5011951;28;20128;-68
2022/04/25 05:59:13;;;;;;;24.52;13.95;;;;;;;10.19;45.46;100313.59;5012369;28;20130;-68
2022/04/25 06:01:40;;;;;;;30.02;14.18;;;;;;;10.52;44.62;100313.63;5011838;28;20550;-67
2022/04/25 06:04:06;;;;;;;30.20;14.23;;;;;;;11.04;43.68;100318.53;5010706;28;20114;-67
2022/04/25 06:06:33;;;;;;;34.30;14.45;;;;;;;10.16;45.25;100325.47;5011762;28;20042;-67
2022/04/25 06:09:00;;;;;;;29.17;13.80;;;;;;;10.28;45.33;100326.84;5010997;28;20133;-67
2022/04/25 06:11:28;;;;;;;24.70;12.23;;;;;;;10.54;44.70;100327.69;5011271;28;20486;-67
2022/04/25 06:13:56;;;;;;;29.45;13.70;;;;;;;10.56;44.63;100325.69;5010864;28;20498;-68
2022/04/25 06:16:22;;;;;;;24.30;13.50;;;;;;;10.83;44.04;100322.59;5010765;28;20046;-66
2022/04/25 06:18:49;;;;;;;26.33;13.52;;;;;;;11.12;43.38;100332.72;5010779;28;20544;-67
2022/04/25 06:21:15;;;;;;;23.23;11.65;;;;;;;11.13;43.39;100334.41;5010778;28;20060;-66
2022/04/25 06:23:42;;;;;;;20.63;11.35;;;;;;;10.75;44.06;100333.34;5003165;28;20368;-67
2022/04/25 06:26:08;;;;;;;21.95;10.57;;;;;;;11.04;43.82;100340.81;5011690;28;20046;-67
2022/04/25 06:28:34;;;;;;;28.02;10.60;;;;;;;11.13;43.25;100344.31;5010967;28;20568;-67
2022/04/25 06:31:01;;;;;;;20.42;10.35;;;;;;;11.29;42.79;100346.94;5010766;28;20092;-67
2022/04/25 06:33:27;;;;;;;24.00;10.18;;;;;;;11.07;43.43;100345.03;5010784;28;20442;-67
2022/04/25 06:35:54;;;;;;;19.52;9.88;;;;;;;11.30;42.80;100348.59;5011037;28;20129;-67
2022/04/25 06:38:21;;;;;;;19.02;10.18;;;;;;;11.08;43.32;100344.00;5011056;28;20046;-67
2022/04/25 06:40:47;;;;;;;15.43;9.45;;;;;;;11.32;42.94;100346.59;5011385;28;20108;-67
2022/04/25 06:43:14;;;;;;;13.45;8.63;;;;;;;11.71;41.92;100351.13;5009725;28;20459;-67
2022/04/25 06:45:41;;;;;;;19.00;9.15;;;;;;;11.21;43.08;100355.88;5008219;28;20478;-67
2022/04/25 06:48:08;;;;;;;15.63;8.30;;;;;;;11.43;42.50;100350.75;5011484;28;20042;-67
2022/04/25 06:50:35;;;;;;;14.55;8.43;;;;;;;11.26;42.90;100354.50;5011307;28;20405;-67
2022/04/25 06:53:01;;;;;;;15.18;8.90;;;;;;;11.33;42.59;100372.44;5010271;28;20073;-67
2022/04/25 06:55:28;;;;;;;19.58;8.68;;;;;;;11.68;41.87;100360.38;5010453;28;20466;-67
2022/04/25 06:57:55;;;;;;;17.38;8.57;;;;;;;11.35;42.68;100367.75;5010668;28;20076;-67
2022/04/25 07:00:24;;;;;;;17.17;8.35;;;;;;;11.33;42.67;100375.13;5010468;28;20494;-67
2022/04/25 07:03:00;;;;;;;16.88;8.45;;;;;;;11.25;42.66;100375.16;5011998;28;20526;-67
2022/04/25 07:05:27;;;;;;;15.68;9.13;;;;;;;11.03;43.36;100378.56;5011380;28;20406;-67
2022/04/25 07:07:54;;;;;;;19.08;9.00;;;;;;;11.30;42.89;100377.31;5009627;28;20049;-67
2022/04/25 07:10:20;;;;;;;18.63;9.50;;;;;;;11.74;42.00;100371.44;5010840;28;20546;-67
2022/04/25 07:12:47;;;;;;;13.35;7.82;;;;;;;12.11;41.18;100371.56;5010154;28;20038;-68
2022/04/25 07:15:13;;;;;;;16.20;8.68;;;;;;;12.47;40.44;100378.16;5010610;28;20042;-68
2022/04/25 07:17:40;;;;;;;12.02;7.47;;;;;;;11.78;41.64;100375.44;5011516;28;20045;-67
2022/04/25 07:20:07;;;;;;;14.13;7.68;;;;;;;11.65;41.72;100376.81;5011465;28;20529;-68
2022/04/25 07:30:48;;;;;;;18.75;7.43;;;;;;;11.36;42.20;100390.88;4991733;28;20539;-69
2022/04/25 07:33:15;;;;;;;13.18;7.78;;;;;;;11.50;41.93;100396.56;4996699;28;20444;-70
2022/04/25 07:35:41;;;;;;;15.40;7.68;;;;;;;11.60;41.99;100394.50;4996072;28;20077;-70
2022/04/25 07:38:08;;;;;;;15.68;7.30;;;;;;;10.64;44.61;100403.44;4996081;28;20133;-70
2022/04/25 07:40:36;;;;;;;16.05;7.70;;;;;;;11.24;43.29;100400.34;4995410;28;20463;-70
2022/04/25 07:43:03;;;;;;;15.57;7.85;;;;;;;10.72;44.16;100403.44;4995963;28;20054;-69
2022/04/25 07:45:30;;;;;;;17.35;7.75;;;;;;;10.19;45.55;100404.72;4988777;28;20054;-69
2022/04/25 07:47:56;;;;;;;17.63;7.75;;;;;;;11.46;43.12;100409.50;4994898;28;20058;-69
2022/04/25 07:50:23;;;;;;;16.33;8.75;;;;;;;11.55;42.89;100413.84;4996174;28;20046;-68
2022/04/25 07:52:59;;;;;;;15.18;8.13;;;;;;;11.59;42.82;100419.69;4995811;28;20569;-70
2022/04/25 07:55:26;;;;;;;16.75;8.75;;;;;;;12.27;41.23;100410.09;4995819;28;20388;-70
2022/04/25 07:57:54;;;;;;;15.90;8.45;;;;;;;12.40;41.02;100419.25;4995408;28;20081;-70
2022/04/25 08:00:20;;;;;;;18.65;8.55;;;;;;;12.45;40.73;100415.16;4994553;28;20085;-70
2022/04/25 08:02:47;;;;;;;16.25;7.57;;;;;;;12.23;41.38;100423.06;4994009;28;20104;-70
2022/04/25 08:05:13;;;;;;;26.13;7.93;;;;;;;12.64;40.63;100415.53;4996010;28;20082;-70
2022/04/25 08:07:40;;;;;;;16.25;7.63;;;;;;;13.24;38.99;100424.56;4996058;28;20084;-70
2022/04/25 08:10:06;;;;;;;17.98;7.70;;;;;;;12.78;40.17;100423.84;4994509;28;20055;-70
2022/04/25 08:18:06;;;;;;;19.92;8.32;;;;;;;13.69;38.52;100432.63;4994933;28;20042;-70
2022/04/25 08:20:36;;;;;;;23.48;8.20;;;;;;;13.54;38.79;100422.72;4995272;28;20450;-70
2022/04/25 08:23:05;;;;;;;14.52;7.30;;;;;;;13.93;37.91;100428.81;4987133;28;20044;-70
2022/04/25 08:25:32;;;;;;;16.42;7.00;;;;;;;13.98;38.06;100429.09;4995056;28;20054;-70
2022/04/25 08:27:59;;;;;;;15.23;7.60;;;;;;;13.13;39.15;100434.97;4994578;28;20106;-70
2022/04/25 08:30:26;;;;;;;16.92;7.32;;;;;;;12.88;39.75;100427.97;4995653;28;20054;-70
2022/04/25 08:32:55;;;;;;;17.90;7.43;;;;;;;13.26;39.26;100430.59;4994621;28;20077;-70
2022/04/25 08:35:22;;;;;;;15.82;6.80;;;;;;;13.79;37.94;100436.75;4995002;28;20513;-70
2022/04/25 08:37:48;;;;;;;19.08;6.68;;;;;;;13.18;38.91;100436.09;4989679;28;20466;-70
2022/04/25 08:40:16;;;;;;;15.52;6.63;;;;;;;14.23;36.93;100432.28;4995706;28;20042;-70
2022/04/25 08:42:43;;;;;;;18.58;6.60;;;;;;;13.31;38.14;100446.22;4994038;28;20442;-70
2022/04/25 08:45:12;;;;;;;17.08;7.05;;;;;;;13.49;38.13;100445.84;4993764;28;20096;-70
2022/04/25 08:47:47;;;;;;;15.13;7.28;;;;;;;13.68;37.86;100452.53;4994084;28;20093;-70
2022/04/25 08:50:17;;;;;;;9.88;6.68;;;;;;;14.19;36.97;100442.63;4995030;28;20046;-70
2022/04/25 08:52:45;;;;;;;16.85;6.10;;;;;;;14.07;36.86;100449.53;4994579;28;20077;-70
2022/04/25 08:55:14;;;;;;;14.02;6.07;;;;;;;13.93;37.41;100461.19;4995432;28;20455;-70
2022/04/25 08:57:45;;;;;;;10.95;6.10;;;;;;;13.72;37.42;100468.13;4994938;28;20046;-70
2022/04/25 09:00:12;;;;;;;14.57;6.70;;;;;;;13.53;38.04;100464.16;4994469;28;20631;-70
2022/04/25 09:02:39;;;;;;;18.00;8.43;;;;;;;14.14;37.06;100463.09;4995154;28;20050;-70
2022/04/25 09:05:07;;;;;;;11.63;6.32;;;;;;;13.91;37.25;100468.59;4994556;28;20055;-70
2022/04/25 09:07:37;;;;;;;11.10;6.05;;;;;;;14.42;36.78;100466.72;4995559;28;20085;-70
2022/04/25 09:10:09;;;;;;;24.52;7.60;;;;;;;14.53;36.23;100473.47;4994081;28;20050;-70
2022/04/25 09:12:36;;;;;;;;;;;;;;;14.60;35.83;100477.09;4995559;28;20057;-70
2022/04/25 09:15:04;;;;;;;12.70;6.15;;;;;;;14.95;35.55;100479.94;4995905;28;20001;-70
2022/04/25 09:17:49;;;;;;;13.00;5.55;;;;;;;14.36;36.12;100474.72;4995035;28;20043;-70
2022/04/25 09:20:18;;;;;;;14.23;6.22;;;;;;;14.29;36.34;100478.22;4994932;28;20062;-70
2022/04/25 09:22:45;;;;;;;10.23;5.38;;;;;;;15.21;34.89;100485.53;4992890;28;20522;-70
2022/04/25 09:25:13;;;;;;;14.38;5.45;;;;;;;15.86;33.88;100483.47;4994272;28;20072;-70
2022/04/25 09:28:15;;;;;;;13.48;5.30;;;;;;;15.48;33.65;100483.84;4993960;28;20060;-70
2022/04/25 09:30:55;;;;;;;;;;;;;;;16.42;32.60;100488.66;4994652;28;20371;-70
2022/04/25 09:33:23;;;;;;;11.57;5.15;;;;;;;15.44;33.77;100482.59;4993306;28;19949;-70
2022/04/25 09:35:55;;;;;;;11.18;5.53;;;;;;;15.36;34.15;100490.84;4994625;28;20138;-70
2022/04/25 09:38:30;;;;;;;10.90;5.45;;;;;;;15.34;34.40;100490.19;4994405;28;20086;-70
2022/04/25 09:40:56;;;;;;;11.35;5.40;;;;;;;15.58;33.74;100501.59;4984969;28;20410;-70
2022/04/25 09:43:31;;;;;;;14.25;4.93;;;;;;;16.04;33.40;100488.31;4990025;28;20134;-70
2022/04/25 09:46:06;;;;;;;12.55;5.20;;;;;;;15.63;33.65;100491.88;4992897;28;20070;-70
2022/04/25 09:48:34;;;;;;;12.82;5.50;;;;;;;15.95;33.23;100492.22;4987910;28;20050;-70
2022/04/25 09:51:05;;;;;;;10.18;5.10;;;;;;;17.39;31.40;100486.47;4993998;28;20054;-70
2022/04/25 09:53:49;;;;;;;14.38;5.05;;;;;;;16.73;32.32;100489.19;4993339;28;20065;-70
2022/04/25 09:56:19;;;;;;;14.27;5.25;;;;;;;17.03;31.75;100485.03;4994093;28;20053;-70
2022/04/25 09:59:00;;;;;;;9.85;4.53;;;;;;;17.35;30.79;100486.06;4992452;28;20137;-70
2022/04/25 10:01:27;;;;;;;14.20;4.65;;;;;;;16.27;32.60;100489.88;4993737;28;20509;-70
2022/04/25 10:03:54;;;;;;;9.13;3.90;;;;;;;16.02;32.58;100490.41;4992756;28;20046;-70
2022/04/25 10:06:23;;;;;;;9.40;4.22;;;;;;;15.47;33.83;100497.56;4990604;28;20052;-70
2022/04/25 10:08:52;;;;;;;12.00;4.35;;;;;;;15.42;33.99;100500.03;4992838;28;20058;-70
2022/04/25 10:11:19;;;;;;;9.45;3.97;;;;;;;15.58;33.76;100496.19;4993373;28;20051;-70
2022/04/25 10:13:47;;;;;;;15.00;4.75;;;;;;;15.76;33.34;100498.41;4993900;28;20125;-70
2022/04/25 10:16:19;;;;;;;11.63;4.43;;;;;;;16.11;32.94;100497.31;4993058;28;20399;-70
2022/04/25 10:18:45;;;;;;;8.57;3.90;;;;;;;16.91;31.71;100494.81;4988423;28;20053;-70
2022/04/25 10:21:14;;;;;;;16.02;4.55;;;;;;;16.42;32.35;100498.66;4992743;28;20060;-70
2022/04/25 10:23:44;;;;;;;12.93;4.60;;;;;;;16.40;32.36;100500.72;4993199;28;20078;-70
2022/04/25 10:26:11;;;;;;;11.60;4.47;;;;;;;16.54;32.19;100502.50;4992442;28;20073;-70
2022/04/25 10:28:44;;;;;;;12.93;5.53;;;;;;;17.72;30.41;100499.16;4991551;28;20053;-70
2022/04/25 10:31:18;;;;;;;12.15;4.88;;;;;;;17.18;31.28;100500.25;4985662;28;20060;-70
2022/04/25 10:33:50;;;;;;;8.63;3.72;;;;;;;17.49;30.69;100505.88;4992991;28;20402;-70
2022/04/25 10:36:38;;;;;;;7.28;3.90;;;;;;;18.22;29.71;100504.84;4992945;28;20133;-70
2022/04/25 10:39:15;;;;;;;12.02;4.63;;;;;;;17.06;30.94;100505.44;4990920;28;20129;-70
2022/04/25 10:44:47;;;;;;;15.45;4.40;;;;;;;16.73;31.98;100500.84;4992706;28;20047;-70
2022/04/25 10:47:18;;;;;;;8.63;4.63;;;;;;;17.12;31.37;100499.19;4992117;28;20124;-70
2022/04/25 10:49:46;;;;;;;;;;;;;;;17.25;31.46;100488.34;4990133;28;20073;-70
2022/04/25 10:52:54;;;;;;;9.05;4.22;;;;;;;17.73;30.77;100498.09;5000099;28;19984;-70
2022/04/25 10:55:23;;;;;;;8.70;3.97;;;;;;;18.48;29.32;100503.84;4993335;28;20402;-70
2022/04/25 10:58:07;;;;;;;10.88;4.40;;;;;;;17.84;30.14;100508.28;4989865;28;20046;-70
2022/04/25 11:00:36;;;;;;;8.00;3.38;;;;;;;17.32;30.99;100500.00;4992374;28;20053;-70
2022/04/25 11:03:08;;;;;;;6.10;3.00;;;;;;;17.45;30.19;100509.22;4984700;28;20042;-70
2022/04/25 11:05:35;;;;;;;8.95;3.42;;;;;;;17.66;30.02;100516.28;4992022;28;20194;-70
2022/04/25 11:08:23;;;;;;;5.15;3.42;;;;;;;18.95;28.28;100515.28;4991884;28;20518;-70
2022/04/25 11:11:01;;;;;;;9.00;4.00;;;;;;;17.72;29.86;100516.28;4992667;28;20228;-70
2022/04/25 11:13:33;;;;;;;7.40;3.72;;;;;;;18.17;29.34;100512.78;4992024;28;20129;-70
2022/04/25 11:16:21;;;;;;;11.75;5.03;;;;;;;18.09;29.56;100517.38;4992224;28;20062;-70
2022/04/25 11:19:08;;;;;;;7.70;3.72;;;;;;;17.68;30.06;100525.84;4992061;28;20050;-70
2022/04/25 11:21:34;;;;;;;7.85;3.50;;;;;;;17.55;29.63;100524.03;4992174;28;20070;-70
2022/04/25 11:24:02;;;;;;;9.98;4.05;;;;;;;17.48;30.23;100534.03;4990969;28;20482;-70
2022/04/25 11:26:29;;;;;;;8.75;3.80;;;;;;;17.57;30.14;100537.34;4992310;28;20118;-70
2022/04/25 11:28:55;;;;;;;11.48;3.35;;;;;;;17.73;29.73;100538.81;4992960;28;20376;-70
2022/04/25 11:31:24;;;;;;;9.52;3.47;;;;;;;18.16;29.17;100541.00;4992996;28;20402;-70
2022/04/25 11:33:53;;;;;;;8.93;3.85;;;;;;;17.56;30.28;100543.84;4992431;28;20054;-70
2022/04/25 11:36:21;;;;;;;11.25;3.33;;;;;;;18.97;28.68;100541.22;4993376;28;20056;-70
2022/04/25 11:41:36;;;;;;;6.70;3.92;;;;;;;18.32;28.80;100548.66;4991742;28;20066;-70
2022/04/25 11:44:07;;;;;;;7.28;4.05;;;;;;;18.33;28.65;100544.06;4991998;28;20121;-69
2022/04/25 11:46:35;;;;;;;11.43;3.30;;;;;;;18.37;28.85;100554.28;4991960;28;20517;-68
2022/04/25 11:49:03;;;;;;;7.32;3.65;;;;;;;18.96;27.92;100550.41;4991308;28;20125;-69
2022/04/25 11:51:37;;;;;;;9.43;3.58;;;;;;;20.63;25.95;100544.13;4991368;28;20509;-68
2022/04/25 11:54:06;;;;;;;11.10;4.18;;;;;;;19.71;26.93;100546.88;4991283;28;20126;-69
2022/04/25 11:56:34;;;;;;;6.28;3.38;;;;;;;20.75;25.29;100547.72;4991974;28;20133;-69
2022/04/25 11:59:11;;;;;;;8.98;3.85;;;;;;;19.26;27.35;100542.44;4984510;28;20465;-69
2022/04/25 12:01:48;;;;;;;7.72;3.75;;;;;;;18.88;28.08;100550.66;4991504;28;20082;-68
2022/04/25 12:04:20;;;;;;;8.75;3.90;;;;;;;18.43;28.78;100555.28;4993815;28;22763;-68